Time;durP1;ratioP1;P1;durP2;ratioP2;P2;SDS_P1;SDS_P2;PMS_P1;PMS_P2;Temp;Humidity;BMP_temperature;BMP_pressure;BME280_temperature;BME280_humidity;BME280_pressure;Samples;Min_cycle;Max_cycle;Signal;HPM_P1;HPM_P2
2021/04/16 00:04:05;;;;;;;4.10;3.75;;;;;;;6.71;50.17;101210.06;10363391;28;20219;-59
2021/04/16 00:09:12;;;;;;;3.83;3.50;;;;;;;6.72;50.27;101198.56;10369562;28;20042;-60
2021/04/16 00:14:13;;;;;;;3.28;2.97;;;;;;;6.72;50.12;101193.25;10366211;28;20050;-60
2021/04/16 00:19:14;;;;;;;4.13;2.95;;;;;;;6.67;50.53;101189.97;10365225;28;20147;-60
2021/04/16 00:24:15;;;;;;;3.92;3.58;;;;;;;6.79;50.87;101177.06;10373846;28;20049;-61
2021/04/16 00:29:16;;;;;;;3.55;3.05;;;;;;;6.70;51.34;101184.53;10384069;28;20099;-59
2021/04/16 00:34:19;;;;;;;3.67;3.38;;;;;;;6.84;51.24;101180.34;10362107;28;20065;-60
2021/04/16 00:39:22;;;;;;;3.85;3.00;;;;;;;6.96;51.01;101173.56;10390713;28;20046;-60
2021/04/16 00:44:23;;;;;;;5.38;3.60;;;;;;;6.85;51.60;101155.59;10389485;28;20458;-59
2021/04/16 00:49:39;;;;;;;4.32;3.50;;;;;;;6.86;51.47;101154.63;10379502;28;20058;-62
2021/04/16 00:54:42;;;;;;;3.72;3.25;;;;;;;6.68;52.23;101159.94;10358231;28;20972;-61
2021/04/16 00:59:47;;;;;;;3.83;3.42;;;;;;;6.85;51.84;101150.31;10384254;28;20100;-60
2021/04/16 01:04:48;;;;;;;3.20;2.90;;;;;;;6.85;51.13;101150.31;10366828;28;20073;-59
2021/04/16 01:09:50;;;;;;;3.67;2.75;;;;;;;6.75;51.55;101149.03;10371098;28;20057;-60
2021/04/16 01:14:58;;;;;;;3.47;3.17;;;;;;;6.78;51.26;101143.59;10372500;28;20161;-60
2021/04/16 01:20:12;;;;;;;3.78;3.45;;;;;;;6.81;51.03;101149.56;10373038;28;20131;-59
2021/04/16 01:25:14;;;;;;;3.35;3.05;;;;;;;6.62;51.75;101147.03;10374699;28;20053;-60
2021/04/16 01:30:26;;;;;;;3.85;3.45;;;;;;;6.75;51.86;101146.41;10368407;28;20498;-61
2021/04/16 01:35:33;;;;;;;4.30;3.42;;;;;;;6.50;53.05;101155.53;10376784;28;20045;-60
2021/04/16 01:40:34;;;;;;;4.53;3.53;;;;;;;6.72;52.62;101139.47;10369223;28;21181;-60
2021/04/16 01:45:35;;;;;;;4.25;3.88;;;;;;;6.78;52.76;101143.59;10375082;28;20069;-60
2021/04/16 01:50:36;;;;;;;3.88;3.50;;;;;;;6.80;53.10;101139.06;10363390;28;20450;-61
2021/04/16 01:55:37;;;;;;;4.47;4.18;;;;;;;6.77;53.13;101141.88;10374425;28;20057;-60
2021/04/16 02:13:22;;;;;;;4.57;4.18;;;;;;;6.76;53.50;101124.31;10360897;28;20049;-66
2021/04/16 02:18:23;;;;;;;4.75;3.83;;;;;;;6.73;53.61;101126.16;10369031;28;20057;-67
2021/04/16 02:23:25;;;;;;;4.90;4.40;;;;;;;6.67;53.83;101118.53;10371733;28;20049;-65
2021/04/16 02:28:25;;;;;;;4.10;3.63;;;;;;;6.58;54.67;101126.94;10382455;28;20422;-66
2021/04/16 02:33:26;;;;;;;6.35;4.45;;;;;;;6.62;55.02;101131.16;10385945;28;20045;-68
2021/04/16 02:38:27;;;;;;;4.75;4.28;;;;;;;6.41;55.39;101103.09;10390996;28;20419;-65
2021/04/16 02:43:28;;;;;;;4.82;3.90;;;;;;;6.46;55.77;101111.69;10384978;28;20072;-65
2021/04/16 02:48:30;;;;;;;4.55;4.00;;;;;;;6.45;56.08;101115.25;10380303;28;20053;-66
2021/04/16 02:53:31;;;;;;;3.67;3.38;;;;;;;6.61;55.65;101118.84;10390309;28;20069;-68
2021/04/16 02:58:33;;;;;;;6.40;4.07;;;;;;;6.46;55.69;101091.38;10387830;28;20046;-66
2021/04/16 03:03:35;;;;;;;3.40;3.10;;;;;;;6.36;55.73;101083.03;10391733;28;20522;-65
2021/04/16 03:08:37;;;;;;;3.63;3.33;;;;;;;6.52;55.34;101103.44;10391926;28;20687;-66
2021/04/16 03:13:38;;;;;;;3.35;3.00;;;;;;;6.40;54.89;101086.38;10389476;28;20076;-66
2021/04/16 03:18:39;;;;;;;4.53;2.80;;;;;;;6.51;54.51;101088.47;10387025;28;20069;-66
2021/04/16 03:23:40;;;;;;;4.30;3.60;;;;;;;6.32;55.13;101091.19;10390603;28;20049;-68
2021/04/16 03:28:42;;;;;;;3.58;3.22;;;;;;;6.37;55.00;101076.81;10387243;28;20091;-66
2021/04/16 03:33:42;;;;;;;4.28;3.90;;;;;;;6.48;55.18;101076.25;10383716;28;20392;-66
2021/04/16 03:38:45;;;;;;;3.97;3.50;;;;;;;6.48;55.24;101073.63;10382795;28;20689;-67
2021/04/16 03:43:46;;;;;;;4.70;4.22;;;;;;;5.99;56.67;101070.75;10381721;28;20053;-66
2021/04/16 03:48:47;;;;;;;4.88;4.40;;;;;;;6.22;56.48;101071.44;10381399;28;20045;-69
2021/04/16 03:53:48;;;;;;;5.30;4.70;;;;;;;6.20;57.22;101079.44;10372904;28;20045;-66
2021/04/16 03:58:49;;;;;;;4.75;4.30;;;;;;;6.12;57.58;101077.16;10380812;28;20103;-66
2021/04/16 04:03:50;;;;;;;4.80;4.28;;;;;;;6.08;58.01;101080.03;10373162;28;20049;-68
2021/04/16 04:08:51;;;;;;;5.82;4.88;;;;;;;5.97;58.15;101068.19;10386688;28;20053;-67
2021/04/16 04:13:53;;;;;;;6.47;5.30;;;;;;;5.91;58.15;101072.88;10369649;28;20042;-67
2021/04/16 04:18:55;;;;;;;4.90;4.25;;;;;;;6.07;57.87;101080.97;10387192;28;20054;-66
2021/04/16 04:23:56;;;;;;;5.65;4.72;;;;;;;6.07;57.63;101087.09;10380176;28;20692;-66
2021/04/16 04:28:56;;;;;;;4.88;4.25;;;;;;;5.68;58.90;101088.03;10383211;28;20045;-65
2021/04/16 04:33:57;;;;;;;5.05;4.55;;;;;;;6.03;57.63;101085.53;10388647;28;20050;-68
2021/04/16 04:38:58;;;;;;;5.32;4.00;;;;;;;6.23;56.69;101081.94;10372489;28;20065;-66
2021/04/16 04:43:59;;;;;;;5.75;4.10;;;;;;;6.00;54.80;101030.19;10390781;28;20080;-67
2021/04/16 04:49:00;;;;;;;5.13;3.75;;;;;;;6.27;54.05;101086.13;10382397;28;20123;-66
2021/04/16 04:54:01;;;;;;;4.70;3.65;;;;;;;6.24;53.95;101080.97;10380483;28;20389;-67
2021/04/16 04:59:04;;;;;;;4.22;3.72;;;;;;;6.17;53.64;101083.09;10380314;28;20120;-66
2021/04/16 05:04:06;;;;;;;4.10;3.67;;;;;;;6.16;53.65;101094.59;10361986;28;20077;-66
2021/04/16 05:09:07;;;;;;;3.55;2.85;;;;;;;6.16;52.93;101077.88;10384018;28;20053;-65
2021/04/16 05:14:07;;;;;;;3.22;2.92;;;;;;;6.11;53.04;101085.16;10383899;28;20050;-65
2021/04/16 05:19:09;;;;;;;3.35;2.80;;;;;;;6.21;52.87;101069.72;10380437;28;20060;-66
2021/04/16 05:24:11;;;;;;;4.30;2.90;;;;;;;6.13;52.89;101097.38;10363941;28;20129;-65
2021/04/16 05:29:12;;;;;;;2.95;2.50;;;;;;;6.12;53.07;101089.53;10378866;28;20077;-65
2021/04/16 05:34:13;;;;;;;2.67;2.47;;;;;;;6.30;52.60;101093.91;10377318;28;20058;-64
2021/04/16 05:39:15;;;;;;;4.60;3.47;;;;;;;6.23;52.31;101087.22;10376269;28;20064;-69
2021/04/16 05:44:16;;;;;;;5.22;2.58;;;;;;;6.39;52.41;101097.03;10376412;28;20099;-67
2021/04/16 05:49:17;;;;;;;3.53;2.95;;;;;;;6.31;51.77;101082.41;10374821;28;20191;-68
2021/04/16 05:54:19;;;;;;;4.57;2.08;;;;;;;6.15;51.95;101086.72;10358822;28;20518;-67
2021/04/16 05:59:20;;;;;;;3.38;2.22;;;;;;;6.82;55.63;101094.88;10372198;28;20179;-68
2021/04/16 06:04:29;;;;;;;8.10;2.30;;;;;;;7.07;50.26;101103.25;10372744;28;20549;-66
2021/04/16 06:09:51;;;;;;;3.63;1.60;;;;;;;7.03;50.55;101112.28;10371514;28;20056;-67
2021/04/16 06:14:53;;;;;;;2.20;2.00;;;;;;;6.98;50.43;101109.03;10350623;28;20709;-67
2021/04/16 06:19:53;;;;;;;2.55;2.30;;;;;;;7.08;50.13;101109.41;10367363;28;20100;-66
2021/04/16 06:24:54;;;;;;;4.05;1.98;;;;;;;7.07;50.69;101119.16;10351833;28;20052;-67
2021/04/16 06:29:55;;;;;;;2.25;1.80;;;;;;;6.93;50.48;101105.75;10356269;28;20057;-65
2021/04/16 06:34:56;;;;;;;3.22;1.60;;;;;;;7.13;50.39;101117.97;10370910;28;20068;-67
2021/04/16 06:39:57;;;;;;;3.28;2.22;;;;;;;7.36;49.69;101121.19;10373515;22;20516;-58
2021/04/16 06:45:01;;;;;;;2.60;1.70;;;;;;;7.48;49.57;101106.44;10364688;28;20049;-58
2021/04/16 06:50:06;;;;;;;2.43;1.87;;;;;;;7.53;49.19;101109.69;10367570;28;20095;-59
2021/04/16 06:55:26;;;;;;;2.40;1.70;;;;;;;7.58;49.30;101112.94;10363313;28;20053;-59
2021/04/16 07:01:08;;;;;;;2.58;1.77;;;;;;;7.42;50.16;101119.06;10363721;28;20056;-59
2021/04/16 07:06:20;;;;;;;2.80;1.83;;;;;;;7.58;49.40;101126.19;10343884;28;20049;-59
2021/04/16 07:11:23;;;;;;;3.17;1.80;;;;;;;7.71;49.07;101124.56;10351080;28;20572;-59
2021/04/16 07:16:25;;;;;;;3.33;1.67;;;;;;;7.91;48.66;101120.84;10360908;28;20421;-58
2021/04/16 07:21:26;;;;;;;2.95;1.67;;;;;;;7.94;48.58;101119.81;10358629;28;20045;-60
2021/04/16 07:26:44;;;;;;;2.22;1.27;;;;;;;8.11;48.52;101114.41;10359447;28;20054;-60
2021/04/16 07:31:50;;;;;;;2.13;1.35;;;;;;;8.09;48.15;101126.91;10343117;28;20061;-59
2021/04/16 07:36:51;;;;;;;3.17;1.05;;;;;;;8.15;47.69;101123.03;10361274;28;20905;-59
2021/04/16 07:41:55;;;;;;;2.78;1.75;;;;;;;8.31;47.37;101120.38;10361085;28;20103;-59
2021/04/16 07:46:59;;;;;;;1.50;1.40;;;;;;;8.37;47.04;101117.38;10356833;28;20045;-65
2021/04/16 07:52:19;;;;;;;2.83;2.42;;;;;;;8.19;47.13;101129.06;10360433;28;20136;-59
2021/04/16 07:57:21;;;;;;;2.63;1.40;;;;;;;8.31;46.93;101123.03;10359161;28;20064;-59
2021/04/16 08:02:34;;;;;;;4.15;1.58;;;;;;;8.36;46.65;101126.31;10360376;28;20049;-59
2021/04/16 08:07:36;;;;;;;4.03;1.60;;;;;;;8.45;46.50;101120.50;10357391;28;20128;-60
2021/04/16 08:12:37;;;;;;;2.05;1.38;;;;;;;8.72;45.96;101111.88;10346257;28;20623;-60
2021/04/16 08:17:40;;;;;;;1.98;1.40;;;;;;;8.60;46.15;101112.56;10353527;28;20495;-61
2021/04/16 08:22:42;;;;;;;2.88;1.30;;;;;;;8.85;45.97;101120.78;10347295;28;20506;-59
2021/04/16 08:28:01;;;;;;;2.35;1.20;;;;;;;9.16;44.39;101120.78;10354799;28;20050;-59
2021/04/16 08:33:09;;;;;;;2.08;1.20;;;;;;;9.62;42.38;101125.03;10360289;28;20037;-60
2021/04/16 08:38:16;;;;;;;3.42;1.45;;;;;;;10.03;42.25;101122.41;10360672;28;20053;-60
2021/04/16 08:43:29;;;;;;;3.05;1.30;;;;;;;10.39;41.45;101122.81;10340865;28;20037;-60
2021/04/16 08:48:37;;;;;;;3.35;1.55;;;;;;;10.71;41.75;101128.66;10363269;28;20051;-60
2021/04/16 08:53:40;;;;;;;2.33;1.60;;;;;;;10.74;41.46;101117.78;10356807;28;20042;-66
2021/04/16 08:58:42;;;;;;;2.92;1.42;;;;;;;10.73;40.76;101125.88;10360395;28;20092;-60
2021/04/16 09:04:25;;;;;;;1.52;1.27;;;;;;;10.65;40.53;101121.06;10359848;28;20162;-60
2021/04/16 09:09:48;;;;;;;2.15;1.10;;;;;;;11.00;39.95;101117.81;10360875;28;20065;-60
2021/04/16 09:14:52;;;;;;;1.90;1.02;;;;;;;11.18;38.75;101110.38;10360018;28;20038;-63
2021/04/16 09:19:59;;;;;;;1.73;1.03;;;;;;;11.60;38.38;101110.97;10360989;28;20158;-60
2021/04/16 09:25:02;;;;;;;2.47;1.40;;;;;;;11.95;37.92;101098.75;10359845;28;20151;-60
2021/04/16 09:30:05;;;;;;;2.35;1.17;;;;;;;12.12;36.92;101106.41;10359594;28;20049;-61
2021/04/16 09:35:17;;;;;;;1.57;1.07;;;;;;;12.44;36.10;101092.47;10340624;28;20076;-60
2021/04/16 09:40:19;;;;;;;2.28;1.50;;;;;;;12.70;36.32;101095.84;10357547;28;20057;-60
2021/04/16 09:45:29;;;;;;;1.70;1.13;;;;;;;12.95;35.36;101096.63;10336126;28;20794;-62
2021/04/16 09:50:41;;;;;;;1.35;1.17;;;;;;;12.67;35.94;101096.09;10372922;28;20781;-63
2021/04/16 09:56:00;;;;;;;2.40;1.50;;;;;;;12.55;35.76;101081.00;10342395;28;20054;-64
2021/04/16 10:01:07;;;;;;;2.22;1.70;;;;;;;12.61;36.23;101085.88;10358365;28;20071;-61
2021/04/16 10:06:29;;;;;;;2.45;1.13;;;;;;;12.67;34.29;101079.19;10355864;28;20053;-60
2021/04/16 10:11:31;;;;;;;1.35;1.20;;;;;;;12.66;34.71;101073.00;10353135;28;20298;-63
2021/04/16 10:16:32;;;;;;;2.70;1.27;;;;;;;12.69;34.52;101072.75;10348687;28;20192;-60
2021/04/16 10:21:33;;;;;;;2.15;1.27;;;;;;;12.73;34.53;101068.91;10334426;28;20123;-61
2021/04/16 12:41:11;;;;;;;2.25;1.17;;;;;;;10.78;39.27;101086.50;10351632;28;20095;-60
2021/04/16 12:46:17;;;;;;;2.13;1.35;;;;;;;10.57;40.07;101086.13;10351313;28;20073;-60
2021/04/16 12:51:19;;;;;;;2.63;1.70;;;;;;;10.61;40.03;101075.19;10352990;28;20402;-60
2021/04/16 12:56:24;;;;;;;1.75;1.65;;;;;;;10.86;39.92;101077.97;10351937;28;20450;-60
2021/04/16 13:01:29;;;;;;;1.83;1.15;;;;;;;11.14;39.46;101082.25;10353621;28;20510;-63
2021/04/16 13:06:43;;;;;;;1.70;1.15;;;;;;;11.81;38.51;101073.06;10336140;28;20050;-60
2021/04/16 13:11:46;;;;;;;4.43;1.70;;;;;;;11.64;39.14;101075.13;10353004;28;20064;-60
2021/04/16 13:16:47;;;;;;;2.72;1.40;;;;;;;11.30;39.96;101076.69;10335071;28;20045;-61
2021/04/16 13:21:49;;;;;;;3.72;2.00;;;;;;;10.82;41.28;101079.97;10338126;28;20053;-60
2021/04/16 13:26:51;;;;;;;1.58;1.30;;;;;;;10.43;42.50;101076.41;10338441;28;20123;-61
2021/04/16 13:31:52;;;;;;;1.98;1.20;;;;;;;10.36;43.60;101072.47;10323737;23;20153;-57
2021/04/16 13:36:53;;;;;;;4.70;1.45;;;;;;;10.42;43.26;101061.41;10275912;28;20415;-58
2021/04/16 13:41:54;;;;;;;2.97;1.00;;;;;;;10.44;42.43;101036.38;10234540;28;20890;-57
2021/04/16 13:46:58;;;;;;;2.47;1.17;;;;;;;10.92;41.78;101035.78;10232807;28;20058;-57
2021/04/16 13:51:59;;;;;;;1.73;0.80;;;;;;;11.46;40.68;101045.31;10230642;28;20055;-58
2021/04/16 13:57:01;;;;;;;2.42;1.00;;;;;;;11.67;39.89;101042.06;10216615;28;20153;-57
2021/04/16 14:02:03;;;;;;;1.13;0.88;;;;;;;11.52;38.57;101021.84;10240012;28;20133;-57
2021/04/16 14:07:07;;;;;;;1.15;0.90;;;;;;;11.56;38.55;101015.31;10240381;28;20054;-56
2021/04/16 14:12:10;;;;;;;2.28;0.95;;;;;;;11.75;38.54;101023.69;10221546;28;20590;-57
2021/04/16 14:17:17;;;;;;;1.13;0.85;;;;;;;11.84;38.37;101020.34;10237313;28;20143;-56
2021/04/16 14:22:26;;;;;;;1.65;1.10;;;;;;;12.24;37.97;101013.03;10237160;28;20090;-57
2021/04/16 14:27:27;;;;;;;1.27;1.17;;;;;;;12.28;37.32;101010.03;10236650;28;20062;-59
2021/04/16 14:32:28;;;;;;;1.58;0.88;;;;;;;12.47;37.36;101013.97;10240061;28;20058;-58
2021/04/16 14:37:29;;;;;;;1.20;1.02;;;;;;;12.45;36.55;101013.22;10236082;28;20452;-58
2021/04/16 14:42:30;;;;;;;1.92;0.98;;;;;;;12.40;36.63;101010.03;10236863;28;20166;-58
2021/04/16 14:47:31;;;;;;;1.38;0.90;;;;;;;12.18;37.14;100988.50;10236042;28;20145;-56
2021/04/16 14:52:34;;;;;;;2.08;0.98;;;;;;;12.26;37.17;101003.09;10237515;28;20054;-57
2021/04/16 14:57:38;;;;;;;2.60;1.15;;;;;;;12.00;37.58;100998.75;10238548;28;20810;-59
2021/04/16 15:02:39;;;;;;;1.50;1.15;;;;;;;11.82;37.91;100992.09;10239760;28;20047;-59
2021/04/16 15:07:45;;;;;;;1.90;1.20;;;;;;;11.61;38.99;100987.34;10242566;28;20051;-58
2021/04/16 15:12:46;;;;;;;1.48;1.08;;;;;;;11.78;38.76;100986.09;10241071;28;20153;-58
2021/04/16 15:17:47;;;;;;;1.73;1.40;;;;;;;11.81;38.51;100990.38;10242617;28;20136;-57
2021/04/16 15:22:49;;;;;;;1.40;1.13;;;;;;;11.67;39.32;100989.56;10242567;28;20485;-56
2021/04/16 15:27:55;;;;;;;1.45;0.95;;;;;;;11.73;38.88;100979.44;10236182;28;20166;-56
2021/04/16 15:32:59;;;;;;;1.95;1.17;;;;;;;11.74;38.83;100994.44;10234972;28;20090;-56
2021/04/16 15:49:04;;;;;;;2.13;1.15;;;;;;;11.61;39.08;100984.69;10233633;28;20102;-58
2021/04/16 15:54:06;;;;;;;2.70;1.50;;;;;;;11.35;39.27;100943.09;10234166;28;20154;-57
2021/04/16 15:59:16;;;;;;;2.92;1.80;;;;;;;11.28;39.70;100956.84;10232728;28;20093;-57
2021/04/16 16:04:18;;;;;;;2.13;1.75;;;;;;;11.18;40.38;100971.81;10234678;28;20134;-57
2021/04/16 16:09:19;;;;;;;2.55;1.33;;;;;;;11.08;39.96;100960.09;10224142;28;20050;-58
2021/04/16 16:14:29;;;;;;;2.92;1.70;;;;;;;10.79;40.30;100955.03;10224578;28;20090;-57
2021/04/16 16:19:32;;;;;;;2.08;1.88;;;;;;;10.99;40.47;100968.75;10226960;28;20047;-55
2021/04/16 16:24:33;;;;;;;2.20;1.80;;;;;;;10.96;40.50;100954.69;10232001;28;20059;-56
2021/04/16 16:29:38;;;;;;;2.03;1.40;;;;;;;10.96;40.53;100968.00;10225179;28;20081;-57
2021/04/16 16:34:39;;;;;;;2.20;1.63;;;;;;;10.96;40.53;100968.00;10230641;28;20050;-56
2021/04/16 16:39:40;;;;;;;2.80;1.98;;;;;;;11.00;40.11;100963.31;10226992;28;20141;-61
2021/04/16 16:44:44;;;;;;;2.95;1.52;;;;;;;11.05;40.49;100958.53;10229099;28;20059;-58
2021/04/16 16:49:45;;;;;;;2.25;1.83;;;;;;;10.86;40.35;100950.97;10227950;28;20153;-58
2021/04/16 16:54:46;;;;;;;3.30;1.65;;;;;;;10.96;40.51;100957.34;10213585;28;20730;-57
2021/04/16 16:59:48;;;;;;;3.13;1.70;;;;;;;10.93;40.54;100957.56;10229996;28;20148;-57
2021/04/16 17:04:50;;;;;;;2.30;1.80;;;;;;;10.89;40.95;100958.75;10228719;28;20051;-57
2021/04/16 17:09:52;;;;;;;2.85;1.63;;;;;;;10.45;42.07;100957.38;10229445;28;20047;-58
2021/04/16 17:14:55;;;;;;;3.08;1.90;;;;;;;10.60;42.25;100958.97;10215414;28;20098;-57
2021/04/16 17:19:56;;;;;;;4.15;2.80;;;;;;;10.66;41.68;100956.84;10227971;28;20117;-57
2021/04/16 17:24:57;;;;;;;8.98;8.27;;;;;;;10.64;41.67;100951.63;10229451;28;20054;-58
2021/04/16 17:29:59;;;;;;;4.05;3.75;;;;;;;10.63;42.00;100955.25;10230589;28;20043;-57
2021/04/16 17:35:00;;;;;;;2.50;2.30;;;;;;;10.26;42.31;100937.31;10238109;28;20058;-59
2021/04/16 17:40:04;;;;;;;5.75;4.80;;;;;;;10.33;42.54;100952.84;10241232;28;20131;-58
2021/04/16 17:45:12;;;;;;;5.93;2.90;;;;;;;10.37;42.77;100949.06;10220157;28;20054;-58
2021/04/16 17:50:28;;;;;;;3.25;2.85;;;;;;;10.38;42.57;100950.78;10221381;28;20055;-56
2021/04/16 17:55:29;;;;;;;3.05;2.75;;;;;;;10.32;42.44;100953.81;10235219;28;20420;-58
2021/04/16 18:00:30;;;;;;;3.50;2.20;;;;;;;10.24;42.65;100952.53;10234474;28;20054;-58
2021/04/16 18:05:31;;;;;;;3.70;2.10;;;;;;;10.20;42.71;100951.03;10229485;28;20050;-58
2021/04/16 18:10:36;;;;;;;3.00;2.00;;;;;;;10.26;42.64;100955.09;10234370;28;20050;-58
2021/04/16 18:15:37;;;;;;;3.78;1.83;;;;;;;10.24;42.92;100952.53;10227311;28;20129;-58
2021/04/16 18:20:38;;;;;;;3.20;2.08;;;;;;;10.30;42.66;100963.72;10227819;28;20068;-58
2021/04/16 18:25:43;;;;;;;9.82;7.85;;;;;;;10.28;42.89;100955.81;10221835;28;20109;-58
2021/04/16 18:30:47;;;;;;;;;;;;;;;10.29;42.85;100964.69;10223478;28;20054;-57
2021/04/16 18:35:50;;;;;;;14.63;9.70;;;;;;;10.23;43.16;100968.59;10222055;28;19922;-60
2021/04/16 18:41:00;;;;;;;5.85;4.18;;;;;;;10.14;42.90;100964.75;10205295;28;20055;-60
2021/04/16 18:46:04;;;;;;;7.00;5.03;;;;;;;10.13;43.02;100972.84;10218472;28;20698;-63
2021/04/16 18:51:06;;;;;;;9.25;5.32;;;;;;;10.16;42.79;100973.47;10221109;28;20138;-56
2021/04/16 18:56:09;;;;;;;8.25;5.85;;;;;;;10.14;43.30;100970.06;10220949;28;20185;-57
2021/04/16 19:01:16;;;;;;;6.03;4.32;;;;;;;10.11;43.23;100975.59;10223069;28;20542;-65
2021/04/16 19:06:24;;;;;;;4.30;3.90;;;;;;;10.06;43.24;100977.72;10225516;28;20511;-58
2021/04/16 19:11:29;;;;;;;4.88;4.13;;;;;;;10.13;43.31;100978.16;10229301;28;20149;-58
2021/04/16 19:16:30;;;;;;;4.63;4.05;;;;;;;10.07;43.24;100987.41;10231721;28;20102;-59
2021/04/16 19:21:56;;;;;;;6.35;4.43;;;;;;;10.04;43.68;100996.44;10233070;28;20062;-59
2021/04/16 19:27:00;;;;;;;6.45;5.30;;;;;;;9.96;43.95;100982.78;10234544;28;20096;-57
2021/04/16 19:32:02;;;;;;;5.88;4.38;;;;;;;9.96;43.88;101005.88;10235748;28;20264;-59
2021/04/16 19:37:06;;;;;;;5.25;4.75;;;;;;;9.89;43.77;101000.97;10232437;28;20118;-60
2021/04/16 19:42:07;;;;;;;6.50;4.40;;;;;;;9.82;44.21;101007.66;10326480;23;20045;-70
2021/04/16 19:47:13;;;;;;;4.40;3.38;;;;;;;9.79;44.16;100997.22;10371869;28;20053;-69
2021/04/16 20:18:57;;;;;;;4.68;4.15;;;;;;;9.83;44.35;100996.06;10365832;28;20084;-70
2021/04/16 20:23:58;;;;;;;5.57;4.50;;;;;;;9.85;44.59;100990.66;10375288;28;20703;-70
2021/04/16 20:28:59;;;;;;;5.63;5.00;;;;;;;9.90;44.66;100996.50;10349507;28;20601;-69
2021/04/16 20:34:00;;;;;;;6.72;5.20;;;;;;;9.82;44.82;100997.00;10380972;28;20049;-69
2021/04/16 20:39:08;;;;;;;4.55;4.15;;;;;;;9.88;44.63;101001.91;10376542;28;20121;-68
2021/04/16 20:44:10;;;;;;;6.93;4.25;;;;;;;9.86;44.54;100998.53;10361916;28;20050;-70
2021/04/16 20:49:15;;;;;;;4.60;4.20;;;;;;;9.77;44.64;101001.75;10389465;28;20124;-70
2021/04/16 20:54:21;;;;;;;3.80;3.50;;;;;;;9.73;44.92;101003.78;10378371;28;20076;-70
2021/04/16 20:59:22;;;;;;;6.93;3.92;;;;;;;9.71;44.93;100991.53;10381634;28;20046;-68
2021/04/16 21:04:33;;;;;;;3.95;3.47;;;;;;;9.77;44.45;100999.09;10374544;28;20141;-70
2021/04/16 21:09:38;;;;;;;4.72;4.22;;;;;;;9.81;44.89;100992.63;10367495;28;20056;-70
2021/04/16 21:14:40;;;;;;;12.40;8.57;;;;;;;9.88;45.40;100991.28;10379307;28;20127;-69
2021/04/16 21:19:44;;;;;;;9.73;5.90;;;;;;;9.92;45.56;101002.56;10374654;28;21575;-70
2021/04/16 21:24:48;;;;;;;6.80;6.20;;;;;;;9.81;45.15;100992.63;10374090;28;20049;-69
2021/04/16 21:29:49;;;;;;;5.30;4.80;;;;;;;9.68;46.08;101007.69;10368294;28;20046;-69
2021/04/16 21:34:59;;;;;;;9.95;7.20;;;;;;;9.55;46.52;101005.81;10376761;28;20104;-69
2021/04/16 21:40:05;;;;;;;11.05;8.48;;;;;;;9.54;46.74;101008.56;10376746;28;20068;-70
2021/04/16 21:45:29;;;;;;;10.13;8.82;;;;;;;9.45;47.45;100998.53;10373306;28;20046;-71
2021/04/16 21:50:40;;;;;;;9.53;8.53;;;;;;;9.45;47.40;100994.06;10381523;28;20330;-69
2021/04/16 21:55:41;;;;;;;9.57;8.68;;;;;;;9.51;47.63;100993.66;10387589;28;20447;-68
2021/04/16 22:00:48;;;;;;;7.95;6.68;;;;;;;9.57;47.36;101000.41;10380728;28;20053;-70
2021/04/16 22:06:00;;;;;;;7.32;6.18;;;;;;;9.49;47.81;100994.75;10382549;28;20073;-69
2021/04/16 22:11:16;;;;;;;7.38;6.50;;;;;;;9.62;48.18;101000.09;10376365;28;20589;-68
2021/04/16 22:16:33;;;;;;;7.93;6.90;;;;;;;9.64;47.62;100998.22;10378666;28;20064;-69
2021/04/16 22:21:39;;;;;;;9.60;7.10;;;;;;;9.55;47.68;100994.34;10388703;28;20518;-68
2021/04/16 22:26:40;;;;;;;6.95;5.50;;;;;;;9.57;47.45;100987.09;10376497;28;20088;-69
2021/04/16 22:31:41;;;;;;;6.40;5.53;;;;;;;9.62;47.62;100989.47;10381422;28;20500;-69
2021/04/16 22:36:49;;;;;;;10.70;6.30;;;;;;;9.48;47.95;100985.88;10375517;28;20080;-69
2021/04/16 22:42:09;;;;;;;6.85;5.13;;;;;;;9.51;47.69;100972.41;10383594;28;20045;-71
2021/04/16 22:47:27;;;;;;;6.15;5.07;;;;;;;9.54;47.07;100961.56;10389079;28;20128;-70
2021/04/16 22:52:33;;;;;;;7.22;5.25;;;;;;;9.54;47.29;100963.38;10407222;28;20072;-70
2021/04/16 22:57:38;;;;;;;5.68;4.78;;;;;;;9.37;48.16;100964.50;10397249;28;20197;-69
2021/04/16 23:02:45;;;;;;;5.38;4.88;;;;;;;9.35;47.99;100956.63;10384142;28;20049;-69
2021/04/16 23:07:47;;;;;;;5.35;4.82;;;;;;;9.36;47.92;100962.78;10383820;28;20063;-70
2021/04/16 23:12:48;;;;;;;6.50;4.80;;;;;;;9.38;47.83;100966.16;10386208;28;20211;-69
2021/04/16 23:17:49;;;;;;;4.70;4.18;;;;;;;9.41;48.06;100959.81;10393473;28;20072;-69
2021/04/16 23:22:55;;;;;;;5.07;4.50;;;;;;;9.37;47.54;100949.38;10385418;28;20051;-69
2021/04/16 23:28:12;;;;;;;7.80;4.72;;;;;;;9.45;47.93;100954.19;10372752;28;20042;-68
2021/04/16 23:33:51;;;;;;;5.55;4.72;;;;;;;9.51;47.87;100939.66;10378898;28;20045;-68
2021/04/16 23:38:52;;;;;;;6.03;4.75;;;;;;;9.43;47.33;100940.19;10376174;28;20069;-68
2021/04/16 23:43:53;;;;;;;5.53;5.00;;;;;;;9.43;48.09;100932.19;10389318;28;20492;-69
2021/04/16 23:48:54;;;;;;;5.25;4.72;;;;;;;9.34;48.00;100940.78;10389868;28;20043;-69
2021/04/16 23:53:55;;;;;;;6.57;5.72;;;;;;;9.24;48.27;100947.63;10377186;28;20057;-70
2021/04/16 23:58:55;;;;;;;6.88;5.82;;;;;;;9.05;48.65;100921.38;10382313;28;20050;-68
